sensor_id;sensor_type;location;lat;lon;timestamp;P1;durP1;ratioP1;P2;durP2;ratioP2
79084;SDS011;68486;42.808;23.422;2023-03-24T00:01:15;6.55;;;4.57;;
79084;SDS011;68486;42.808;23.422;2023-03-24T00:03:41;10.00;;;5.72;;
79084;SDS011;68486;42.808;23.422;2023-03-24T00:06:10;8.18;;;4.95;;
79084;SDS011;68486;42.808;23.422;2023-03-24T00:08:37;6.90;;;4.60;;
79084;SDS011;68486;42.808;23.422;2023-03-24T00:11:06;7.25;;;4.72;;
79084;SDS011;68486;42.808;23.422;2023-03-24T00:13:33;6.93;;;4.47;;
79084;SDS011;68486;42.808;23.422;2023-03-24T00:16:06;7.40;;;5.10;;
79084;SDS011;68486;42.808;23.422;2023-03-24T00:18:34;8.10;;;4.82;;
79084;SDS011;68486;42.808;23.422;2023-03-24T00:21:01;8.48;;;4.50;;
79084;SDS011;68486;42.808;23.422;2023-03-24T00:23:28;13.25;;;7.65;;
79084;SDS011;68486;42.808;23.422;2023-03-24T00:28:27;11.00;;;5.22;;
79084;SDS011;68486;42.808;23.422;2023-03-24T00:30:53;8.13;;;4.80;;
79084;SDS011;68486;42.808;23.422;2023-03-24T00:33:19;7.65;;;4.80;;
79084;SDS011;68486;42.808;23.422;2023-03-24T00:35:44;10.95;;;6.85;;
79084;SDS011;68486;42.808;23.422;2023-03-24T00:38:12;10.90;;;6.63;;
79084;SDS011;68486;42.808;23.422;2023-03-24T00:40:38;7.75;;;5.68;;
79084;SDS011;68486;42.808;23.422;2023-03-24T00:43:03;11.40;;;5.95;;
79084;SDS011;68486;42.808;23.422;2023-03-24T00:45:29;9.90;;;6.85;;
79084;SDS011;68486;42.808;23.422;2023-03-24T00:47:58;9.80;;;6.25;;
79084;SDS011;68486;42.808;23.422;2023-03-24T00:50:23;9.73;;;6.07;;
79084;SDS011;68486;42.808;23.422;2023-03-24T00:52:50;30.08;;;19.25;;
79084;SDS011;68486;42.808;23.422;2023-03-24T00:55:16;19.80;;;11.95;;
79084;SDS011;68486;42.808;23.422;2023-03-24T00:57:45;11.20;;;7.50;;
79084;SDS011;68486;42.808;23.422;2023-03-24T01:00:14;6.75;;;4.80;;
79084;SDS011;68486;42.808;23.422;2023-03-24T01:02:52;8.27;;;5.28;;
79084;SDS011;68486;42.808;23.422;2023-03-24T01:05:23;8.57;;;4.95;;
79084;SDS011;68486;42.808;23.422;2023-03-24T01:07:52;9.23;;;6.28;;
79084;SDS011;68486;42.808;23.422;2023-03-24T01:10:20;9.05;;;5.40;;
79084;SDS011;68486;42.808;23.422;2023-03-24T01:12:50;8.60;;;5.13;;
79084;SDS011;68486;42.808;23.422;2023-03-24T01:15:19;8.32;;;5.10;;
79084;SDS011;68486;42.808;23.422;2023-03-24T01:17:47;9.70;;;5.10;;
79084;SDS011;68486;42.808;23.422;2023-03-24T01:20:13;8.73;;;5.18;;
79084;SDS011;68486;42.808;23.422;2023-03-24T01:22:41;10.20;;;5.80;;
79084;SDS011;68486;42.808;23.422;2023-03-24T01:25:16;10.98;;;6.80;;
79084;SDS011;68486;42.808;23.422;2023-03-24T01:27:45;8.00;;;5.05;;
79084;SDS011;68486;42.808;23.422;2023-03-24T01:30:12;7.82;;;5.47;;
79084;SDS011;68486;42.808;23.422;2023-03-24T01:32:40;9.80;;;4.95;;
79084;SDS011;68486;42.808;23.422;2023-03-24T01:35:06;9.05;;;5.18;;
79084;SDS011;68486;42.808;23.422;2023-03-24T01:37:32;9.60;;;5.13;;
79084;SDS011;68486;42.808;23.422;2023-03-24T01:39:57;9.25;;;5.82;;
79084;SDS011;68486;42.808;23.422;2023-03-24T01:42:24;11.70;;;5.38;;
79084;SDS011;68486;42.808;23.422;2023-03-24T01:44:53;8.00;;;4.78;;
79084;SDS011;68486;42.808;23.422;2023-03-24T01:47:21;8.60;;;5.78;;
79084;SDS011;68486;42.808;23.422;2023-03-24T01:52:26;9.65;;;5.68;;
79084;SDS011;68486;42.808;23.422;2023-03-24T01:54:57;8.48;;;5.20;;
79084;SDS011;68486;42.808;23.422;2023-03-24T02:00:06;8.73;;;5.55;;
79084;SDS011;68486;42.808;23.422;2023-03-24T02:02:34;8.10;;;4.68;;
79084;SDS011;68486;42.808;23.422;2023-03-24T02:05:03;9.50;;;5.32;;
79084;SDS011;68486;42.808;23.422;2023-03-24T02:07:39;9.52;;;5.75;;
79084;SDS011;68486;42.808;23.422;2023-03-24T02:10:12;9.38;;;6.28;;
79084;SDS011;68486;42.808;23.422;2023-03-24T02:12:40;11.55;;;6.22;;
79084;SDS011;68486;42.808;23.422;2023-03-24T02:15:08;10.38;;;5.88;;
79084;SDS011;68486;42.808;23.422;2023-03-24T02:20:31;8.90;;;5.57;;
79084;SDS011;68486;42.808;23.422;2023-03-24T02:34:51;8.73;;;5.15;;
79084;SDS011;68486;42.808;23.422;2023-03-24T02:45:36;8.15;;;4.72;;
79084;SDS011;68486;42.808;23.422;2023-03-24T02:48:26;10.80;;;5.60;;
79084;SDS011;68486;42.808;23.422;2023-03-24T02:54:12;8.77;;;5.18;;
79084;SDS011;68486;42.808;23.422;2023-03-24T02:59:24;10.43;;;5.78;;
79084;SDS011;68486;42.808;23.422;2023-03-24T03:04:32;8.75;;;5.28;;
79084;SDS011;68486;42.808;23.422;2023-03-24T03:07:04;8.38;;;5.15;;
79084;SDS011;68486;42.808;23.422;2023-03-24T03:09:38;8.75;;;5.00;;
79084;SDS011;68486;42.808;23.422;2023-03-24T03:12:07;7.60;;;4.75;;
79084;SDS011;68486;42.808;23.422;2023-03-24T03:17:05;7.75;;;5.13;;
79084;SDS011;68486;42.808;23.422;2023-03-24T03:19:39;9.55;;;5.70;;
79084;SDS011;68486;42.808;23.422;2023-03-24T03:22:10;9.68;;;5.82;;
79084;SDS011;68486;42.808;23.422;2023-03-24T03:24:41;10.07;;;5.28;;
79084;SDS011;68486;42.808;23.422;2023-03-24T03:32:38;9.25;;;5.30;;
79084;SDS011;68486;42.808;23.422;2023-03-24T03:35:11;7.45;;;4.65;;
79084;SDS011;68486;42.808;23.422;2023-03-24T03:40:40;12.65;;;6.03;;
79084;SDS011;68486;42.808;23.422;2023-03-24T03:43:13;11.35;;;6.05;;
79084;SDS011;68486;42.808;23.422;2023-03-24T03:45:39;9.52;;;6.60;;
79084;SDS011;68486;42.808;23.422;2023-03-24T03:48:05;11.32;;;6.47;;
79084;SDS011;68486;42.808;23.422;2023-03-24T03:50:30;12.43;;;7.35;;
79084;SDS011;68486;42.808;23.422;2023-03-24T03:52:57;9.93;;;6.43;;
79084;SDS011;68486;42.808;23.422;2023-03-24T03:55:22;9.95;;;6.10;;
79084;SDS011;68486;42.808;23.422;2023-03-24T03:57:47;11.40;;;5.90;;
79084;SDS011;68486;42.808;23.422;2023-03-24T04:00:14;9.63;;;6.00;;
79084;SDS011;68486;42.808;23.422;2023-03-24T04:11:14;8.80;;;4.63;;
79084;SDS011;68486;42.808;23.422;2023-03-24T04:17:36;11.13;;;6.55;;
79084;SDS011;68486;42.808;23.422;2023-03-24T04:23:00;9.85;;;5.80;;
79084;SDS011;68486;42.808;23.422;2023-03-24T04:30:50;12.45;;;7.53;;
79084;SDS011;68486;42.808;23.422;2023-03-24T04:33:23;11.68;;;6.55;;
79084;SDS011;68486;42.808;23.422;2023-03-24T04:36:00;11.93;;;6.90;;
79084;SDS011;68486;42.808;23.422;2023-03-24T04:38:31;10.63;;;5.95;;
79084;SDS011;68486;42.808;23.422;2023-03-24T04:41:00;11.43;;;6.07;;
79084;SDS011;68486;42.808;23.422;2023-03-24T04:43:30;9.70;;;6.00;;
79084;SDS011;68486;42.808;23.422;2023-03-24T04:46:00;9.07;;;6.13;;
79084;SDS011;68486;42.808;23.422;2023-03-24T04:48:27;11.73;;;6.03;;
79084;SDS011;68486;42.808;23.422;2023-03-24T04:53:27;9.95;;;5.68;;
79084;SDS011;68486;42.808;23.422;2023-03-24T04:58:24;8.30;;;4.70;;
79084;SDS011;68486;42.808;23.422;2023-03-24T05:00:50;8.80;;;5.45;;
79084;SDS011;68486;42.808;23.422;2023-03-24T05:03:17;9.93;;;5.20;;
79084;SDS011;68486;42.808;23.422;2023-03-24T05:05:43;8.32;;;5.03;;
79084;SDS011;68486;42.808;23.422;2023-03-24T05:08:11;11.20;;;5.25;;
79084;SDS011;68486;42.808;23.422;2023-03-24T05:10:37;8.30;;;5.25;;
79084;SDS011;68486;42.808;23.422;2023-03-24T05:13:03;7.03;;;4.55;;
79084;SDS011;68486;42.808;23.422;2023-03-24T05:15:29;9.00;;;5.47;;
79084;SDS011;68486;42.808;23.422;2023-03-24T05:17:55;10.52;;;5.90;;
79084;SDS011;68486;42.808;23.422;2023-03-24T05:20:20;10.15;;;5.80;;
79084;SDS011;68486;42.808;23.422;2023-03-24T05:22:47;11.05;;;5.78;;
79084;SDS011;68486;42.808;23.422;2023-03-24T05:25:13;11.55;;;6.28;;
79084;SDS011;68486;42.808;23.422;2023-03-24T05:27:40;11.82;;;6.60;;
79084;SDS011;68486;42.808;23.422;2023-03-24T05:30:05;9.88;;;5.95;;
79084;SDS011;68486;42.808;23.422;2023-03-24T05:32:32;8.60;;;5.45;;
79084;SDS011;68486;42.808;23.422;2023-03-24T05:34:57;9.82;;;5.35;;
79084;SDS011;68486;42.808;23.422;2023-03-24T05:37:22;11.98;;;7.00;;
79084;SDS011;68486;42.808;23.422;2023-03-24T05:39:48;10.57;;;6.70;;
79084;SDS011;68486;42.808;23.422;2023-03-24T05:42:14;9.68;;;6.15;;
79084;SDS011;68486;42.808;23.422;2023-03-24T05:44:40;11.30;;;6.47;;
79084;SDS011;68486;42.808;23.422;2023-03-24T05:47:06;12.73;;;8.15;;
79084;SDS011;68486;42.808;23.422;2023-03-24T05:49:31;14.75;;;6.72;;
79084;SDS011;68486;42.808;23.422;2023-03-24T05:51:56;12.45;;;7.32;;
79084;SDS011;68486;42.808;23.422;2023-03-24T05:54:22;13.15;;;7.47;;
79084;SDS011;68486;42.808;23.422;2023-03-24T05:56:47;13.65;;;6.60;;
79084;SDS011;68486;42.808;23.422;2023-03-24T05:59:13;12.55;;;7.60;;
79084;SDS011;68486;42.808;23.422;2023-03-24T06:01:39;14.98;;;7.25;;
79084;SDS011;68486;42.808;23.422;2023-03-24T06:04:06;14.60;;;7.15;;
79084;SDS011;68486;42.808;23.422;2023-03-24T06:06:32;14.32;;;6.95;;
79084;SDS011;68486;42.808;23.422;2023-03-24T06:08:58;14.02;;;6.43;;
79084;SDS011;68486;42.808;23.422;2023-03-24T06:11:26;12.43;;;6.93;;
79084;SDS011;68486;42.808;23.422;2023-03-24T06:13:52;11.90;;;6.93;;
79084;SDS011;68486;42.808;23.422;2023-03-24T06:16:23;15.55;;;8.52;;
79084;SDS011;68486;42.808;23.422;2023-03-24T06:18:49;15.40;;;8.95;;
79084;SDS011;68486;42.808;23.422;2023-03-24T06:21:16;12.77;;;7.35;;
79084;SDS011;68486;42.808;23.422;2023-03-24T06:23:43;15.68;;;9.57;;
79084;SDS011;68486;42.808;23.422;2023-03-24T06:26:09;18.08;;;9.38;;
79084;SDS011;68486;42.808;23.422;2023-03-24T06:28:35;15.68;;;9.80;;
79084;SDS011;68486;42.808;23.422;2023-03-24T06:31:04;17.52;;;8.80;;
79084;SDS011;68486;42.808;23.422;2023-03-24T06:33:30;17.45;;;9.77;;
79084;SDS011;68486;42.808;23.422;2023-03-24T06:35:56;14.27;;;9.82;;
79084;SDS011;68486;42.808;23.422;2023-03-24T06:38:21;13.70;;;7.72;;
79084;SDS011;68486;42.808;23.422;2023-03-24T06:40:47;16.63;;;9.15;;
79084;SDS011;68486;42.808;23.422;2023-03-24T06:43:12;16.38;;;9.18;;
79084;SDS011;68486;42.808;23.422;2023-03-24T06:45:38;16.77;;;10.23;;
79084;SDS011;68486;42.808;23.422;2023-03-24T06:48:06;15.20;;;9.30;;
79084;SDS011;68486;42.808;23.422;2023-03-24T06:50:31;15.43;;;8.50;;
79084;SDS011;68486;42.808;23.422;2023-03-24T06:52:59;17.70;;;10.60;;
79084;SDS011;68486;42.808;23.422;2023-03-24T06:55:25;16.40;;;10.35;;
79084;SDS011;68486;42.808;23.422;2023-03-24T06:57:51;17.42;;;10.63;;
79084;SDS011;68486;42.808;23.422;2023-03-24T07:00:16;15.88;;;9.02;;
79084;SDS011;68486;42.808;23.422;2023-03-24T07:02:43;18.45;;;10.23;;
79084;SDS011;68486;42.808;23.422;2023-03-24T07:05:09;18.17;;;10.65;;
79084;SDS011;68486;42.808;23.422;2023-03-24T07:07:36;18.58;;;9.98;;
79084;SDS011;68486;42.808;23.422;2023-03-24T07:10:02;18.48;;;9.90;;
79084;SDS011;68486;42.808;23.422;2023-03-24T07:12:29;18.35;;;10.18;;
79084;SDS011;68486;42.808;23.422;2023-03-24T07:14:55;19.42;;;12.10;;
79084;SDS011;68486;42.808;23.422;2023-03-24T07:17:20;19.77;;;11.82;;
79084;SDS011;68486;42.808;23.422;2023-03-24T07:19:46;20.08;;;10.68;;
79084;SDS011;68486;42.808;23.422;2023-03-24T07:22:11;19.52;;;9.98;;
79084;SDS011;68486;42.808;23.422;2023-03-24T07:24:37;18.92;;;11.02;;
79084;SDS011;68486;42.808;23.422;2023-03-24T07:27:03;17.25;;;10.68;;
79084;SDS011;68486;42.808;23.422;2023-03-24T07:29:28;19.38;;;12.13;;
79084;SDS011;68486;42.808;23.422;2023-03-24T07:31:54;17.13;;;7.72;;
79084;SDS011;68486;42.808;23.422;2023-03-24T07:34:22;17.42;;;9.98;;
79084;SDS011;68486;42.808;23.422;2023-03-24T07:36:52;18.85;;;10.70;;
79084;SDS011;68486;42.808;23.422;2023-03-24T07:39:17;19.17;;;11.13;;
79084;SDS011;68486;42.808;23.422;2023-03-24T07:41:43;20.60;;;11.88;;
79084;SDS011;68486;42.808;23.422;2023-03-24T07:44:09;15.93;;;9.70;;
79084;SDS011;68486;42.808;23.422;2023-03-24T07:46:35;13.27;;;7.78;;
79084;SDS011;68486;42.808;23.422;2023-03-24T07:49:00;22.23;;;12.45;;
79084;SDS011;68486;42.808;23.422;2023-03-24T07:51:26;20.55;;;12.30;;
79084;SDS011;68486;42.808;23.422;2023-03-24T07:53:52;22.30;;;13.05;;
79084;SDS011;68486;42.808;23.422;2023-03-24T07:56:18;18.33;;;10.07;;
79084;SDS011;68486;42.808;23.422;2023-03-24T07:58:43;21.52;;;12.77;;
79084;SDS011;68486;42.808;23.422;2023-03-24T08:01:09;26.65;;;13.38;;
79084;SDS011;68486;42.808;23.422;2023-03-24T08:03:35;18.98;;;11.48;;
79084;SDS011;68486;42.808;23.422;2023-03-24T08:06:02;22.95;;;13.32;;
79084;SDS011;68486;42.808;23.422;2023-03-24T08:08:28;17.02;;;11.18;;
79084;SDS011;68486;42.808;23.422;2023-03-24T08:10:53;20.20;;;11.88;;
79084;SDS011;68486;42.808;23.422;2023-03-24T08:13:19;20.25;;;11.07;;
79084;SDS011;68486;42.808;23.422;2023-03-24T08:15:44;20.30;;;11.90;;
79084;SDS011;68486;42.808;23.422;2023-03-24T08:18:10;20.90;;;10.73;;
79084;SDS011;68486;42.808;23.422;2023-03-24T08:20:35;15.07;;;8.68;;
79084;SDS011;68486;42.808;23.422;2023-03-24T08:23:01;17.98;;;11.13;;
79084;SDS011;68486;42.808;23.422;2023-03-24T08:25:28;19.45;;;11.73;;
79084;SDS011;68486;42.808;23.422;2023-03-24T08:27:54;19.02;;;11.18;;
79084;SDS011;68486;42.808;23.422;2023-03-24T09:28:35;19.27;;;11.15;;
79084;SDS011;68486;42.808;23.422;2023-03-24T09:31:02;15.75;;;9.73;;
79084;SDS011;68486;42.808;23.422;2023-03-24T09:33:29;17.70;;;9.98;;
79084;SDS011;68486;42.808;23.422;2023-03-24T09:35:55;10.45;;;6.53;;
79084;SDS011;68486;42.808;23.422;2023-03-24T09:38:22;10.45;;;7.18;;
79084;SDS011;68486;42.808;23.422;2023-03-24T09:40:50;11.40;;;7.75;;
79084;SDS011;68486;42.808;23.422;2023-03-24T09:50:58;12.65;;;8.43;;
79084;SDS011;68486;42.808;23.422;2023-03-24T09:55:54;13.70;;;9.05;;
79084;SDS011;68486;42.808;23.422;2023-03-24T09:58:19;12.75;;;7.82;;
79084;SDS011;68486;42.808;23.422;2023-03-24T10:00:48;10.82;;;7.25;;
79084;SDS011;68486;42.808;23.422;2023-03-24T10:03:18;10.35;;;6.90;;
79084;SDS011;68486;42.808;23.422;2023-03-24T10:08:41;12.30;;;7.78;;
79084;SDS011;68486;42.808;23.422;2023-03-24T10:16:37;13.15;;;8.00;;
79084;SDS011;68486;42.808;23.422;2023-03-24T10:19:21;10.68;;;6.07;;
79084;SDS011;68486;42.808;23.422;2023-03-24T10:28:15;12.32;;;8.50;;
79084;SDS011;68486;42.808;23.422;2023-03-24T10:30:37;14.32;;;8.20;;
79084;SDS011;68486;42.808;23.422;2023-03-24T10:33:08;13.32;;;6.72;;
79084;SDS011;68486;42.808;23.422;2023-03-24T10:35:36;11.82;;;7.70;;
79084;SDS011;68486;42.808;23.422;2023-03-24T10:38:14;11.80;;;7.18;;
79084;SDS011;68486;42.808;23.422;2023-03-24T10:40:42;10.65;;;7.10;;
79084;SDS011;68486;42.808;23.422;2023-03-24T10:43:09;12.05;;;7.22;;
79084;SDS011;68486;42.808;23.422;2023-03-24T10:45:36;8.80;;;5.30;;
79084;SDS011;68486;42.808;23.422;2023-03-24T10:48:04;9.85;;;6.25;;
79084;SDS011;68486;42.808;23.422;2023-03-24T10:50:31;10.05;;;5.82;;
79084;SDS011;68486;42.808;23.422;2023-03-24T10:52:59;8.65;;;5.82;;
79084;SDS011;68486;42.808;23.422;2023-03-24T10:55:37;8.98;;;6.25;;
79084;SDS011;68486;42.808;23.422;2023-03-24T10:58:03;10.27;;;6.53;;
79084;SDS011;68486;42.808;23.422;2023-03-24T11:00:42;8.52;;;5.70;;
79084;SDS011;68486;42.808;23.422;2023-03-24T11:03:13;4.93;;;3.80;;
79084;SDS011;68486;42.808;23.422;2023-03-24T11:05:42;9.45;;;5.18;;
79084;SDS011;68486;42.808;23.422;2023-03-24T11:10:55;7.00;;;4.80;;
79084;SDS011;68486;42.808;23.422;2023-03-24T11:18:40;25.80;;;5.25;;
79084;SDS011;68486;42.808;23.422;2023-03-24T11:21:20;6.47;;;4.70;;
79084;SDS011;68486;42.808;23.422;2023-03-24T11:23:46;6.97;;;4.68;;
79084;SDS011;68486;42.808;23.422;2023-03-24T11:31:12;7.15;;;4.00;;
79084;SDS011;68486;42.808;23.422;2023-03-24T11:34:09;8.30;;;4.10;;
79084;SDS011;68486;42.808;23.422;2023-03-24T11:36:47;13.13;;;7.00;;
79084;SDS011;68486;42.808;23.422;2023-03-24T11:39:26;8.38;;;4.63;;
79084;SDS011;68486;42.808;23.422;2023-03-24T11:42:26;6.45;;;4.30;;
79084;SDS011;68486;42.808;23.422;2023-03-24T11:44:48;8.35;;;3.92;;
79084;SDS011;68486;42.808;23.422;2023-03-24T11:47:17;6.18;;;3.33;;
79084;SDS011;68486;42.808;23.422;2023-03-24T11:50:30;5.50;;;3.67;;
79084;SDS011;68486;42.808;23.422;2023-03-24T11:52:53;8.65;;;4.72;;
79084;SDS011;68486;42.808;23.422;2023-03-24T11:55:31;8.88;;;4.40;;
79084;SDS011;68486;42.808;23.422;2023-03-24T12:00:48;11.20;;;5.63;;
79084;SDS011;68486;42.808;23.422;2023-03-24T12:03:28;7.88;;;4.80;;
79084;SDS011;68486;42.808;23.422;2023-03-24T12:15:27;5.90;;;3.70;;
79084;SDS011;68486;42.808;23.422;2023-03-24T12:18:04;7.45;;;4.10;;
79084;SDS011;68486;42.808;23.422;2023-03-24T12:23:23;7.43;;;3.55;;
79084;SDS011;68486;42.808;23.422;2023-03-24T12:31:45;6.60;;;3.55;;
79084;SDS011;68486;42.808;23.422;2023-03-24T12:42:39;5.53;;;2.97;;
79084;SDS011;68486;42.808;23.422;2023-03-24T12:58:37;4.07;;;2.60;;
79084;SDS011;68486;42.808;23.422;2023-03-24T13:04:38;35.20;;;16.95;;
79084;SDS011;68486;42.808;23.422;2023-03-24T13:06:51;23.25;;;11.63;;
79084;SDS011;68486;42.808;23.422;2023-03-24T13:11:58;23.58;;;13.07;;
79084;SDS011;68486;42.808;23.422;2023-03-24T13:14:37;3.60;;;2.65;;
79084;SDS011;68486;42.808;23.422;2023-03-24T13:20:28;5.10;;;3.72;;
79084;SDS011;68486;42.808;23.422;2023-03-24T13:23:01;3.63;;;2.00;;
79084;SDS011;68486;42.808;23.422;2023-03-24T13:28:15;3.85;;;2.65;;
79084;SDS011;68486;42.808;23.422;2023-03-24T13:30:52;4.03;;;2.45;;
79084;SDS011;68486;42.808;23.422;2023-03-24T13:33:20;3.15;;;2.10;;
79084;SDS011;68486;42.808;23.422;2023-03-24T13:35:59;4.28;;;2.60;;
79084;SDS011;68486;42.808;23.422;2023-03-24T13:38:44;13.75;;;7.03;;
79084;SDS011;68486;42.808;23.422;2023-03-24T13:41:19;15.23;;;9.27;;
79084;SDS011;68486;42.808;23.422;2023-03-24T13:44:14;3.40;;;2.53;;
79084;SDS011;68486;42.808;23.422;2023-03-24T13:46:41;5.75;;;2.97;;
79084;SDS011;68486;42.808;23.422;2023-03-24T13:49:11;3.75;;;2.80;;
79084;SDS011;68486;42.808;23.422;2023-03-24T13:51:40;4.40;;;3.00;;
79084;SDS011;68486;42.808;23.422;2023-03-24T13:54:16;4.88;;;3.08;;
79084;SDS011;68486;42.808;23.422;2023-03-24T13:56:50;5.65;;;3.28;;
79084;SDS011;68486;42.808;23.422;2023-03-24T14:09:57;3.78;;;2.70;;
79084;SDS011;68486;42.808;23.422;2023-03-24T14:12:25;4.47;;;3.17;;
79084;SDS011;68486;42.808;23.422;2023-03-24T14:15:33;7.28;;;3.95;;
79084;SDS011;68486;42.808;23.422;2023-03-24T14:17:45;6.60;;;2.85;;
79084;SDS011;68486;42.808;23.422;2023-03-24T14:20:35;4.40;;;3.45;;
79084;SDS011;68486;42.808;23.422;2023-03-24T14:23:01;4.43;;;2.90;;
79084;SDS011;68486;42.808;23.422;2023-03-24T14:25:28;4.00;;;2.92;;
79084;SDS011;68486;42.808;23.422;2023-03-24T14:30:53;6.05;;;3.70;;
79084;SDS011;68486;42.808;23.422;2023-03-24T14:33:24;26.08;;;5.28;;
79084;SDS011;68486;42.808;23.422;2023-03-24T14:35:51;5.03;;;3.45;;
79084;SDS011;68486;42.808;23.422;2023-03-24T14:38:26;7.50;;;3.50;;
79084;SDS011;68486;42.808;23.422;2023-03-24T14:40:55;9.68;;;4.53;;
79084;SDS011;68486;42.808;23.422;2023-03-24T14:43:28;10.30;;;5.30;;
79084;SDS011;68486;42.808;23.422;2023-03-24T14:49:05;48.42;;;25.38;;
79084;SDS011;68486;42.808;23.422;2023-03-24T14:54:03;11.27;;;4.10;;
79084;SDS011;68486;42.808;23.422;2023-03-24T14:56:40;10.63;;;4.03;;
79084;SDS011;68486;42.808;23.422;2023-03-24T14:59:17;9.00;;;3.67;;
79084;SDS011;68486;42.808;23.422;2023-03-24T15:01:50;7.45;;;3.35;;
79084;SDS011;68486;42.808;23.422;2023-03-24T15:04:24;6.22;;;3.70;;
79084;SDS011;68486;42.808;23.422;2023-03-24T15:06:50;4.32;;;2.72;;
79084;SDS011;68486;42.808;23.422;2023-03-24T15:09:16;10.18;;;3.60;;
79084;SDS011;68486;42.808;23.422;2023-03-24T15:11:43;9.38;;;3.80;;
79084;SDS011;68486;42.808;23.422;2023-03-24T15:14:20;4.28;;;3.15;;
79084;SDS011;68486;42.808;23.422;2023-03-24T15:16:52;4.55;;;3.28;;
79084;SDS011;68486;42.808;23.422;2023-03-24T15:19:21;18.02;;;3.63;;
79084;SDS011;68486;42.808;23.422;2023-03-24T15:22:10;4.47;;;3.30;;
79084;SDS011;68486;42.808;23.422;2023-03-24T15:24:40;4.75;;;3.40;;
79084;SDS011;68486;42.808;23.422;2023-03-24T15:29:40;5.03;;;3.03;;
79084;SDS011;68486;42.808;23.422;2023-03-24T15:32:18;3.92;;;2.90;;
79084;SDS011;68486;42.808;23.422;2023-03-24T15:34:55;4.95;;;2.90;;
79084;SDS011;68486;42.808;23.422;2023-03-24T15:39:49;4.07;;;2.80;;
79084;SDS011;68486;42.808;23.422;2023-03-24T15:42:17;5.25;;;3.20;;
79084;SDS011;68486;42.808;23.422;2023-03-24T15:44:45;10.18;;;3.30;;
79084;SDS011;68486;42.808;23.422;2023-03-24T15:47:17;6.90;;;3.60;;
79084;SDS011;68486;42.808;23.422;2023-03-24T15:49:48;4.53;;;2.70;;
79084;SDS011;68486;42.808;23.422;2023-03-24T15:55:19;4.50;;;2.90;;
79084;SDS011;68486;42.808;23.422;2023-03-24T15:58:01;3.47;;;2.70;;
79084;SDS011;68486;42.808;23.422;2023-03-24T16:00:44;7.47;;;2.90;;
79084;SDS011;68486;42.808;23.422;2023-03-24T16:03:10;5.57;;;2.72;;
79084;SDS011;68486;42.808;23.422;2023-03-24T16:10:59;3.72;;;2.70;;
79084;SDS011;68486;42.808;23.422;2023-03-24T16:13:28;7.35;;;2.60;;
79084;SDS011;68486;42.808;23.422;2023-03-24T16:15:58;4.13;;;2.75;;
79084;SDS011;68486;42.808;23.422;2023-03-24T16:18:28;4.60;;;3.22;;
79084;SDS011;68486;42.808;23.422;2023-03-24T16:20:56;4.32;;;2.83;;
79084;SDS011;68486;42.808;23.422;2023-03-24T16:23:25;3.90;;;2.60;;
79084;SDS011;68486;42.808;23.422;2023-03-24T16:25:51;5.30;;;2.78;;
79084;SDS011;68486;42.808;23.422;2023-03-24T16:28:18;5.45;;;2.70;;
79084;SDS011;68486;42.808;23.422;2023-03-24T16:30:47;3.75;;;2.80;;
79084;SDS011;68486;42.808;23.422;2023-03-24T16:33:17;4.00;;;2.80;;
79084;SDS011;68486;42.808;23.422;2023-03-24T16:35:44;4.50;;;3.03;;
79084;SDS011;68486;42.808;23.422;2023-03-24T16:38:11;4.78;;;2.72;;
79084;SDS011;68486;42.808;23.422;2023-03-24T16:40:40;10.77;;;3.67;;
79084;SDS011;68486;42.808;23.422;2023-03-24T16:43:10;5.40;;;2.60;;
79084;SDS011;68486;42.808;23.422;2023-03-24T16:45:35;3.70;;;2.72;;
79084;SDS011;68486;42.808;23.422;2023-03-24T16:48:01;3.63;;;2.40;;
79084;SDS011;68486;42.808;23.422;2023-03-24T16:53:00;4.28;;;2.75;;
79084;SDS011;68486;42.808;23.422;2023-03-24T16:55:27;4.40;;;2.53;;
79084;SDS011;68486;42.808;23.422;2023-03-24T16:57:53;3.92;;;2.65;;
79084;SDS011;68486;42.808;23.422;2023-03-24T17:00:19;3.70;;;2.33;;
79084;SDS011;68486;42.808;23.422;2023-03-24T17:02:44;3.78;;;2.53;;
79084;SDS011;68486;42.808;23.422;2023-03-24T17:07:43;4.30;;;2.78;;
79084;SDS011;68486;42.808;23.422;2023-03-24T17:10:09;3.83;;;2.45;;
79084;SDS011;68486;42.808;23.422;2023-03-24T17:12:34;5.82;;;2.78;;
79084;SDS011;68486;42.808;23.422;2023-03-24T17:15:00;11.20;;;2.75;;
79084;SDS011;68486;42.808;23.422;2023-03-24T17:17:25;4.82;;;2.60;;
79084;SDS011;68486;42.808;23.422;2023-03-24T17:19:50;3.83;;;2.22;;
79084;SDS011;68486;42.808;23.422;2023-03-24T17:22:16;4.43;;;2.28;;
79084;SDS011;68486;42.808;23.422;2023-03-24T17:24:42;6.15;;;2.47;;
79084;SDS011;68486;42.808;23.422;2023-03-24T17:27:15;7.00;;;2.72;;
79084;SDS011;68486;42.808;23.422;2023-03-24T17:29:45;4.50;;;2.55;;
79084;SDS011;68486;42.808;23.422;2023-03-24T17:32:10;8.38;;;3.28;;
79084;SDS011;68486;42.808;23.422;2023-03-24T17:34:36;5.20;;;3.22;;
79084;SDS011;68486;42.808;23.422;2023-03-24T17:37:02;4.30;;;2.78;;
79084;SDS011;68486;42.808;23.422;2023-03-24T17:39:30;3.55;;;2.47;;
79084;SDS011;68486;42.808;23.422;2023-03-24T17:41:55;5.05;;;3.22;;
79084;SDS011;68486;42.808;23.422;2023-03-24T17:44:25;4.75;;;3.20;;
79084;SDS011;68486;42.808;23.422;2023-03-24T17:46:50;4.28;;;2.50;;
79084;SDS011;68486;42.808;23.422;2023-03-24T17:49:15;4.50;;;2.90;;
79084;SDS011;68486;42.808;23.422;2023-03-24T17:51:41;3.85;;;2.95;;
79084;SDS011;68486;42.808;23.422;2023-03-24T17:54:06;5.07;;;3.15;;
79084;SDS011;68486;42.808;23.422;2023-03-24T17:56:35;4.47;;;3.17;;
79084;SDS011;68486;42.808;23.422;2023-03-24T17:59:01;5.55;;;3.25;;
79084;SDS011;68486;42.808;23.422;2023-03-24T18:01:27;7.00;;;3.50;;
79084;SDS011;68486;42.808;23.422;2023-03-24T18:03:54;5.47;;;3.20;;
79084;SDS011;68486;42.808;23.422;2023-03-24T18:06:20;5.28;;;3.20;;
79084;SDS011;68486;42.808;23.422;2023-03-24T18:08:45;4.80;;;3.50;;
79084;SDS011;68486;42.808;23.422;2023-03-24T18:11:12;6.35;;;3.88;;
79084;SDS011;68486;42.808;23.422;2023-03-24T18:13:39;4.53;;;2.80;;
79084;SDS011;68486;42.808;23.422;2023-03-24T18:16:05;7.10;;;4.05;;
79084;SDS011;68486;42.808;23.422;2023-03-24T18:18:33;4.07;;;3.08;;
79084;SDS011;68486;42.808;23.422;2023-03-24T18:21:00;6.32;;;3.45;;
79084;SDS011;68486;42.808;23.422;2023-03-24T18:23:25;6.68;;;3.40;;
79084;SDS011;68486;42.808;23.422;2023-03-24T18:25:57;5.07;;;3.90;;
79084;SDS011;68486;42.808;23.422;2023-03-24T18:28:24;9.50;;;4.22;;
79084;SDS011;68486;42.808;23.422;2023-03-24T18:30:50;8.45;;;3.60;;
79084;SDS011;68486;42.808;23.422;2023-03-24T18:33:15;6.13;;;3.55;;
79084;SDS011;68486;42.808;23.422;2023-03-24T18:35:42;30.30;;;5.40;;
79084;SDS011;68486;42.808;23.422;2023-03-24T18:38:13;8.45;;;3.92;;
79084;SDS011;68486;42.808;23.422;2023-03-24T18:40:45;6.82;;;4.20;;
79084;SDS011;68486;42.808;23.422;2023-03-24T18:43:11;6.32;;;3.83;;
79084;SDS011;68486;42.808;23.422;2023-03-24T18:45:37;10.50;;;4.35;;
79084;SDS011;68486;42.808;23.422;2023-03-24T18:48:02;5.20;;;3.47;;
79084;SDS011;68486;42.808;23.422;2023-03-24T18:50:28;6.18;;;4.78;;
79084;SDS011;68486;42.808;23.422;2023-03-24T18:52:53;10.38;;;4.47;;
79084;SDS011;68486;42.808;23.422;2023-03-24T18:55:18;4.43;;;3.17;;
79084;SDS011;68486;42.808;23.422;2023-03-24T18:57:45;5.82;;;3.60;;
79084;SDS011;68486;42.808;23.422;2023-03-24T19:00:11;5.85;;;3.28;;
79084;SDS011;68486;42.808;23.422;2023-03-24T19:02:37;5.03;;;3.80;;